createdAt,value
2022-11-02T01:34:52.511Z,9.20
2022-11-02T01:37:39.879Z,10.80
2022-11-02T01:40:35.655Z,11.98
2022-11-02T01:43:29.408Z,12.32
2022-11-02T01:49:38.841Z,8.50
2022-11-02T02:03:01.413Z,12.75
2022-11-02T02:05:58.586Z,9.43
2022-11-02T02:08:47.773Z,15.07
2022-11-02T02:11:37.347Z,12.70
2022-11-02T02:14:24.861Z,9.80
2022-11-02T02:17:26.408Z,11.30
2022-11-02T02:20:42.027Z,10.20
2022-11-02T02:23:58.386Z,15.00
2022-11-02T02:27:08.762Z,10.98
2022-11-02T02:30:10.538Z,12.13
2022-11-02T02:33:04.958Z,14.45
2022-11-02T02:36:10.531Z,14.35
2022-11-02T02:39:05.392Z,12.35
2022-11-02T02:42:11.481Z,13.05
2022-11-02T02:45:17.704Z,13.05
2022-11-02T02:48:14.703Z,9.38
2022-11-02T02:51:09.434Z,11.32
2022-11-02T02:54:09.531Z,9.35
2022-11-02T02:57:00.885Z,7.15
2022-11-02T02:59:49.147Z,9.13
2022-11-02T03:02:40.213Z,14.57
2022-11-02T03:05:35.459Z,10.63
2022-11-02T03:08:24.712Z,6.95
2022-11-02T03:11:19.263Z,10.15
2022-11-02T03:14:29.530Z,12.15
2022-11-02T03:17:33.062Z,9.52
2022-11-02T03:20:45.698Z,5.82
2022-11-02T03:23:39.356Z,12.07
2022-11-02T03:26:34.949Z,17.33
2022-11-02T03:29:27.398Z,9.05
2022-11-02T03:32:46.619Z,15.52
2022-11-02T03:35:48.511Z,10.23
2022-11-02T03:38:53.137Z,13.35
2022-11-02T03:41:44.385Z,7.80
2022-11-02T03:44:37.493Z,10.40
2022-11-02T03:47:26.173Z,10.80
2022-11-02T03:50:17.194Z,7.13
2022-11-02T03:53:12.585Z,8.00
2022-11-02T03:56:06.170Z,10.95
2022-11-02T03:58:54.202Z,9.98
2022-11-02T04:01:46.907Z,11.70
2022-11-02T04:04:34.613Z,8.77
2022-11-02T04:07:27.760Z,8.73
2022-11-02T04:10:15.017Z,9.82
2022-11-02T04:13:21.197Z,6.20
2022-11-02T04:16:08.275Z,9.85
2022-11-02T04:19:14.562Z,8.00
2022-11-02T04:22:22.072Z,8.38
2022-11-02T04:25:19.981Z,10.07
2022-11-02T04:28:29.988Z,8.75
2022-11-02T04:31:20.806Z,9.27
2022-11-02T04:34:07.995Z,9.70
2022-11-02T04:36:55.430Z,7.50
2022-11-02T04:39:42.609Z,6.22
2022-11-02T04:42:30.276Z,9.20
2022-11-02T04:45:19.123Z,9.30
2022-11-02T04:48:09.313Z,8.25
2022-11-02T04:50:58.294Z,9.15
2022-11-02T04:53:45.452Z,8.38
2022-11-02T04:56:33.573Z,9.82
2022-11-02T04:59:21.783Z,9.40
2022-11-02T05:02:09.882Z,9.15
2022-11-02T05:04:58.141Z,10.45
2022-11-02T05:07:46.274Z,16.02
2022-11-02T05:10:33.693Z,12.98
2022-11-02T05:13:20.832Z,8.85
2022-11-02T05:16:12.208Z,6.53
2022-11-02T05:18:59.742Z,9.82
2022-11-02T05:21:47.647Z,9.90
2022-11-02T05:24:34.851Z,9.43
2022-11-02T05:27:22.116Z,6.10
2022-11-02T05:30:10.073Z,7.43
2022-11-02T05:32:58.223Z,4.50
2022-11-02T05:35:45.826Z,7.78
2022-11-02T05:38:33.315Z,6.15
2022-11-02T05:41:21.979Z,6.38
2022-11-02T05:44:10.149Z,6.80
2022-11-02T05:47:00.641Z,7.80
2022-11-02T05:49:47.718Z,7.38
2022-11-02T05:52:35.081Z,9.23
2022-11-02T05:55:22.403Z,10.48
2022-11-02T05:58:09.606Z,6.93
2022-11-02T06:01:01.394Z,8.20
2022-11-02T06:03:53.197Z,8.43
2022-11-02T06:06:41.084Z,6.20
2022-11-02T06:09:28.318Z,6.90
2022-11-02T06:12:15.371Z,6.78
2022-11-02T06:15:02.443Z,6.85
2022-11-02T06:17:49.590Z,8.68
2022-11-02T06:20:36.899Z,9.90
2022-11-02T06:23:24.911Z,9.75
2022-11-02T06:26:12.867Z,5.60
2022-11-02T06:29:00.319Z,7.10
2022-11-02T06:31:47.734Z,7.80
2022-11-02T06:34:34.871Z,5.47
2022-11-02T06:37:22.839Z,5.43
2022-11-02T06:40:10.893Z,7.07
2022-11-02T06:46:06.281Z,5.93
2022-11-02T06:48:53.388Z,9.20
2022-11-02T06:51:40.775Z,6.75
2022-11-02T06:54:27.955Z,9.35
2022-11-02T06:57:15.069Z,6.20
2022-11-02T07:00:05.086Z,7.72
2022-11-02T07:03:07.446Z,8.15
2022-11-02T07:05:54.938Z,5.05
2022-11-02T07:08:42.703Z,8.23
2022-11-02T07:11:31.102Z,6.53
2022-11-02T07:14:18.468Z,8.23
2022-11-02T07:17:06.002Z,8.60
2022-11-02T07:19:53.154Z,9.43
2022-11-02T07:22:40.625Z,8.07
2022-11-02T07:25:32.741Z,10.88
2022-11-02T07:28:20.113Z,6.88
2022-11-02T07:31:07.216Z,10.23
2022-11-02T07:33:54.258Z,11.13
2022-11-02T07:36:41.580Z,10.32
2022-11-02T07:39:28.629Z,8.68
2022-11-02T07:42:15.697Z,6.47
2022-11-02T07:45:04.808Z,9.95
2022-11-02T07:47:52.000Z,8.82
2022-11-02T07:50:39.116Z,6.07
2022-11-02T07:53:26.206Z,5.13
2022-11-02T07:56:14.020Z,3.25
2022-11-02T07:59:01.154Z,7.03
2022-11-02T08:08:29.223Z,3.47
2022-11-02T08:11:16.406Z,3.45
2022-11-02T08:14:03.623Z,4.13
2022-11-02T08:16:53.691Z,7.20
2022-11-02T08:19:41.020Z,6.43
2022-11-02T08:22:28.234Z,8.48
2022-11-02T08:28:03.942Z,3.53
2022-11-02T08:30:51.796Z,5.63
2022-11-02T08:33:39.034Z,3.33
2022-11-02T08:36:26.243Z,7.13
2022-11-02T08:39:18.671Z,4.80
2022-11-02T08:42:09.511Z,7.90
2022-11-02T08:44:56.754Z,3.92
2022-11-02T08:47:44.276Z,5.38
2022-11-02T08:50:31.755Z,6.18
2022-11-02T08:53:19.021Z,5.32
2022-11-02T08:56:06.607Z,7.20
2022-11-02T08:58:53.769Z,8.50
2022-11-02T09:01:41.037Z,7.32
2022-11-02T09:04:28.443Z,6.65
2022-11-02T09:07:15.759Z,5.60
2022-11-02T09:10:04.021Z,4.85
2022-11-02T09:12:51.079Z,7.55
2022-11-02T09:15:39.041Z,11.00
2022-11-02T09:18:26.334Z,6.50
2022-11-02T09:21:13.574Z,5.47
2022-11-02T09:24:01.151Z,6.05
2022-11-02T09:26:49.565Z,4.93
2022-11-02T09:29:36.663Z,6.57
2022-11-02T09:32:23.788Z,4.80
2022-11-02T09:35:12.257Z,2.45
2022-11-02T09:37:59.623Z,8.38
2022-11-02T09:41:14.370Z,8.25
2022-11-02T09:44:15.085Z,7.38
2022-11-02T09:47:55.666Z,6.07
2022-11-02T09:50:17.430Z,8.07
2022-11-02T09:53:09.216Z,6.65
2022-11-02T09:56:02.602Z,7.35
2022-11-02T09:59:03.761Z,7.40
2022-11-02T10:01:57.836Z,4.88
2022-11-02T10:04:59.654Z,6.03
2022-11-02T10:08:05.148Z,3.88
2022-11-02T10:11:14.029Z,3.97
2022-11-02T10:14:14.565Z,5.90
2022-11-02T10:17:21.745Z,4.30
2022-11-02T10:20:24.787Z,5.13
2022-11-02T10:23:31.398Z,9.93
2022-11-02T10:26:29.783Z,6.22
2022-11-02T10:29:54.850Z,6.25
2022-11-02T10:32:46.175Z,4.57
2022-11-02T10:36:17.889Z,7.80
2022-11-02T10:39:11.874Z,6.63
2022-11-02T10:42:18.246Z,6.55
2022-11-02T10:45:42.204Z,7.70
2022-11-02T10:49:10.879Z,4.20
2022-11-02T10:51:58.225Z,7.93
2022-11-02T10:54:45.470Z,5.00
2022-11-02T10:57:34.553Z,4.10
2022-11-02T11:00:27.909Z,3.95
2022-11-02T11:03:17.502Z,5.10
2022-11-02T11:06:06.433Z,7.63
2022-11-02T11:08:59.363Z,2.58
2022-11-02T11:11:52.955Z,7.10
2022-11-02T11:21:03.931Z,5.82
2022-11-02T11:24:16.428Z,7.82
2022-11-02T11:27:06.804Z,8.05
2022-11-02T11:29:56.555Z,4.57
2022-11-02T11:32:48.390Z,6.10
2022-11-02T11:35:39.527Z,7.95
2022-11-02T11:41:55.126Z,4.85
2022-11-02T11:44:53.028Z,8.07
2022-11-02T11:47:42.653Z,14.32
2022-11-02T11:50:31.169Z,5.05
2022-11-02T11:53:27.876Z,6.07
2022-11-02T11:56:26.166Z,10.45
2022-11-02T11:59:53.149Z,12.13
2022-11-02T12:02:44.722Z,3.25
2022-11-02T12:05:40.743Z,6.30
2022-11-02T12:08:34.613Z,6.40
2022-11-02T12:11:45.203Z,8.63
2022-11-02T12:14:57.003Z,3.88
2022-11-02T12:18:08.930Z,5.85
2022-11-02T12:21:20.610Z,5.28
2022-11-02T12:24:21.236Z,5.55
2022-11-02T12:27:11.628Z,2.28
2022-11-02T12:30:16.343Z,4.53
2022-11-02T12:33:12.616Z,5.32
2022-11-02T12:36:07.271Z,4.65
2022-11-02T12:38:57.349Z,3.80
2022-11-02T12:41:59.857Z,4.97
2022-11-02T12:45:09.584Z,5.03
2022-11-02T12:48:05.442Z,7.15
2022-11-02T12:51:08.824Z,6.85
2022-11-02T12:53:59.819Z,7.15
2022-11-02T12:56:49.908Z,4.57
2022-11-02T12:59:42.150Z,5.93
2022-11-02T13:02:35.939Z,6.88
2022-11-02T13:08:53.041Z,4.25
2022-11-02T13:11:47.987Z,9.25
2022-11-02T13:14:44.502Z,4.88
2022-11-02T13:17:52.664Z,7.65
2022-11-02T13:20:53.167Z,4.80
2022-11-02T13:23:47.661Z,7.07
2022-11-02T13:26:42.170Z,5.93
2022-11-02T13:29:48.677Z,5.65
2022-11-02T13:32:38.856Z,6.78
2022-11-02T13:35:40.846Z,4.90
2022-11-02T13:38:35.418Z,2.92
2022-11-02T13:41:50.456Z,5.07
2022-11-02T13:44:56.392Z,7.50
2022-11-02T13:48:02.503Z,3.00
2022-11-02T13:50:53.167Z,6.07
2022-11-02T13:53:52.327Z,8.20
2022-11-02T13:56:40.753Z,4.82
2022-11-02T13:59:31.876Z,5.95
2022-11-02T14:05:08.284Z,5.70
2022-11-02T14:08:01.372Z,5.32
2022-11-02T14:11:04.273Z,6.63
2022-11-02T14:13:51.374Z,9.13
2022-11-02T14:16:51.110Z,2.60
2022-11-02T14:19:44.534Z,5.25
2022-11-02T14:22:31.825Z,8.35
2022-11-02T14:25:19.046Z,6.13
2022-11-02T14:28:41.980Z,8.70
2022-11-02T14:31:39.913Z,6.50
2022-11-02T14:34:50.879Z,6.75
2022-11-02T14:40:47.807Z,3.47
2022-11-02T14:43:40.863Z,9.07
2022-11-02T14:46:57.063Z,8.27
2022-11-02T14:49:56.905Z,12.02
2022-11-02T14:53:03.477Z,7.60
2022-11-02T14:55:55.792Z,7.75
2022-11-02T14:58:51.373Z,8.27
2022-11-02T15:01:53.572Z,7.53
2022-11-02T15:04:49.760Z,5.57
2022-11-02T15:07:42.161Z,6.10
2022-11-02T15:10:32.338Z,7.60
2022-11-02T15:13:19.432Z,4.57
2022-11-02T15:16:12.511Z,3.80
2022-11-02T15:19:37.860Z,6.20
2022-11-02T15:23:06.176Z,6.82
2022-11-02T15:25:57.719Z,9.18
2022-11-02T15:28:47.118Z,4.45
2022-11-02T15:31:35.612Z,6.05
2022-11-02T15:34:36.118Z,5.80
2022-11-02T15:37:29.791Z,15.48
2022-11-02T15:40:35.294Z,7.40
2022-11-02T15:44:01.482Z,7.93
2022-11-02T15:46:54.540Z,8.18
2022-11-02T15:50:17.681Z,6.50
2022-11-02T15:53:29.478Z,6.32
2022-11-02T15:56:54.155Z,4.82
2022-11-02T15:59:47.860Z,7.50
2022-11-02T16:02:45.635Z,5.40
2022-11-02T16:05:38.756Z,16.23
2022-11-02T16:08:35.582Z,6.07
2022-11-02T16:11:22.783Z,7.97
2022-11-02T16:14:18.539Z,8.35
2022-11-02T16:17:19.280Z,16.20
2022-11-02T16:20:23.609Z,12.90
2022-11-02T16:23:16.702Z,18.40
2022-11-02T16:26:09.509Z,15.32
2022-11-02T16:28:59.502Z,14.75
2022-11-02T16:31:49.699Z,12.82
2022-11-02T16:34:38.613Z,12.05
2022-11-02T16:37:25.853Z,13.07
2022-11-02T16:40:17.523Z,7.45
2022-11-02T16:43:04.781Z,10.07
2022-11-02T16:46:01.149Z,12.20
2022-11-02T16:49:13.224Z,13.45
2022-11-02T16:52:08.157Z,16.48
2022-11-02T16:54:55.281Z,12.15
2022-11-02T16:57:45.455Z,8.30
2022-11-02T17:00:33.205Z,10.43
2022-11-02T17:03:29.754Z,16.10
2022-11-02T17:06:29.204Z,23.42
2022-11-02T17:09:32.709Z,25.85
2022-11-02T17:12:26.392Z,25.38
2022-11-02T17:15:22.720Z,19.65
2022-11-02T17:18:09.864Z,20.08
2022-11-02T17:21:12.977Z,20.08
2022-11-02T17:24:31.808Z,31.27
2022-11-02T17:27:25.756Z,35.28
2022-11-02T17:30:37.976Z,43.03
2022-11-02T17:33:28.933Z,37.85
2022-11-02T17:36:16.652Z,33.97
2022-11-02T17:39:06.598Z,28.77
2022-11-02T17:42:18.895Z,33.10
2022-11-02T17:45:21.420Z,27.95
2022-11-02T17:48:13.392Z,30.25
2022-11-02T17:51:00.674Z,28.15
2022-11-02T17:53:50.630Z,30.85
2022-11-02T17:56:38.156Z,29.02
2022-11-02T17:59:28.061Z,30.20
2022-11-02T18:02:16.451Z,28.38
2022-11-02T18:05:09.927Z,35.80
2022-11-02T18:08:00.196Z,24.10
2022-11-02T18:10:53.328Z,35.15
2022-11-02T18:13:42.102Z,35.35
2022-11-02T18:16:29.688Z,36.65
2022-11-02T18:19:17.188Z,36.92
2022-11-02T18:22:07.665Z,31.67
2022-11-02T18:24:58.686Z,27.10
2022-11-02T18:27:47.032Z,23.08
2022-11-02T18:30:34.359Z,21.55
2022-11-02T18:33:22.490Z,20.25
2022-11-02T18:36:11.660Z,20.60
2022-11-02T18:38:59.204Z,26.17
2022-11-02T18:41:48.373Z,33.92
2022-11-02T18:44:35.877Z,49.10
2022-11-02T18:47:23.251Z,33.78
2022-11-02T18:50:12.530Z,42.13
2022-11-02T18:52:59.682Z,37.97
2022-11-02T18:55:47.324Z,33.45
2022-11-02T18:58:34.877Z,34.30
2022-11-02T19:01:23.748Z,40.00
2022-11-02T19:04:17.023Z,43.63
2022-11-02T19:07:23.316Z,40.40
2022-11-02T19:10:10.546Z,37.20
2022-11-02T19:12:58.090Z,32.13
2022-11-02T19:15:45.539Z,24.83
2022-11-02T19:18:34.421Z,23.15
2022-11-02T19:21:23.866Z,28.92
2022-11-02T19:24:11.517Z,37.35
2022-11-02T19:26:59.617Z,36.22
2022-11-02T19:29:46.957Z,35.35
2022-11-02T19:32:34.427Z,28.75
2022-11-02T19:35:22.061Z,38.13
2022-11-02T19:38:09.578Z,45.53
2022-11-02T19:41:11.353Z,44.17
2022-11-02T19:43:58.713Z,46.20
2022-11-02T19:46:46.588Z,40.30
2022-11-02T19:49:33.925Z,44.95
2022-11-02T19:52:22.422Z,37.42
2022-11-02T19:55:09.957Z,40.85
2022-11-02T19:57:57.181Z,44.05
2022-11-02T20:00:44.427Z,41.20
2022-11-02T20:03:31.684Z,49.70
2022-11-02T20:06:28.131Z,42.50
2022-11-02T20:09:19.946Z,36.83
2022-11-02T20:12:07.730Z,32.03
2022-11-02T20:14:54.968Z,28.98
2022-11-02T20:18:05.613Z,29.00
2022-11-02T20:20:49.857Z,30.08
2022-11-02T20:23:37.503Z,16.48
2022-11-02T20:26:31.584Z,18.58
2022-11-02T20:29:18.936Z,14.32
2022-11-02T20:32:10.380Z,15.55
2022-11-02T20:34:57.660Z,15.65
2022-11-02T20:37:44.978Z,10.98
2022-11-02T20:40:34.492Z,12.75
2022-11-02T20:43:23.566Z,12.27
2022-11-02T20:46:37.160Z,13.68
2022-11-02T20:49:48.956Z,11.05
2022-11-02T20:52:31.416Z,14.82
2022-11-02T20:55:18.643Z,12.68
2022-11-02T20:58:05.947Z,10.18
2022-11-02T21:00:53.900Z,13.40
2022-11-02T21:03:41.143Z,11.40
2022-11-02T21:06:28.426Z,14.65
2022-11-02T21:09:15.824Z,11.02
2022-11-02T21:12:21.755Z,10.75
2022-11-02T21:15:09.355Z,6.20
2022-11-02T21:17:56.713Z,9.93
2022-11-02T21:20:44.574Z,9.90
2022-11-02T21:23:32.411Z,9.00
2022-11-02T21:26:19.777Z,9.88
2022-11-02T21:29:06.974Z,6.07
2022-11-02T21:31:54.226Z,10.68
2022-11-02T21:34:41.431Z,8.30
2022-11-02T21:37:28.923Z,7.07
2022-11-02T21:40:16.112Z,9.15
2022-11-02T21:43:03.694Z,7.40
2022-11-02T21:45:53.207Z,4.90
2022-11-02T21:48:42.293Z,6.90
2022-11-02T21:51:30.300Z,6.72
2022-11-02T21:54:18.831Z,5.18
2022-11-02T21:57:05.974Z,6.15
2022-11-02T21:59:53.266Z,7.95
2022-11-02T22:02:40.533Z,8.18
2022-11-02T22:05:47.755Z,5.45
2022-11-02T22:08:40.902Z,8.90
2022-11-02T22:11:28.476Z,12.20
2022-11-02T22:14:15.699Z,7.15
2022-11-02T22:17:11.331Z,7.47
2022-11-02T22:20:09.852Z,8.57
2022-11-02T22:22:57.056Z,11.15
2022-11-02T22:25:44.276Z,7.00
2022-11-02T22:28:33.955Z,6.68
2022-11-02T22:31:36.606Z,7.32
2022-11-02T22:34:23.744Z,7.05
2022-11-02T22:37:29.620Z,9.20
2022-11-02T22:40:16.884Z,7.20
2022-11-02T22:43:04.248Z,10.10
2022-11-02T22:46:00.431Z,11.15
2022-11-02T22:48:48.017Z,10.07
2022-11-02T22:51:37.726Z,13.73
2022-11-02T22:54:24.868Z,9.70
2022-11-02T22:57:11.931Z,8.27
2022-11-02T22:59:59.089Z,10.57
2022-11-02T23:02:49.013Z,10.10
2022-11-02T23:11:22.391Z,8.50
2022-11-02T23:14:12.590Z,9.57
2022-11-02T23:16:59.820Z,12.60
2022-11-02T23:19:47.027Z,9.57
2022-11-02T23:22:34.206Z,11.90
2022-11-02T23:25:21.367Z,8.65
2022-11-02T23:28:27.106Z,10.75
2022-11-02T23:31:32.890Z,9.88
2022-11-02T23:34:20.059Z,8.00
2022-11-02T23:37:07.209Z,11.50
2022-11-02T23:39:54.453Z,9.15
2022-11-02T23:42:42.396Z,11.93
2022-11-02T23:45:29.569Z,7.68
2022-11-02T23:51:22.876Z,10.23
2022-11-02T23:54:28.556Z,13.52
2022-11-02T23:57:16.837Z,13.40
